createdAt,value
2023-05-16T00:00:16.685Z,100315.44
2023-05-16T00:02:43.442Z,100327.34
2023-05-16T00:05:16.522Z,100336.44
2023-05-16T00:07:45.139Z,100331.72
2023-05-16T00:10:12.595Z,100328.47
2023-05-16T00:12:40.201Z,100327.63
2023-05-16T00:15:08.917Z,100333.03
2023-05-16T00:17:36.401Z,100335.16
2023-05-16T00:20:11.241Z,100328.13
2023-05-16T00:22:38.272Z,100333.78
2023-05-16T00:25:05.203Z,100324.28
2023-05-16T00:27:33.878Z,100328.03
2023-05-16T00:30:01.631Z,100331.22
2023-05-16T00:32:28.612Z,100336.63
2023-05-16T00:34:55.218Z,100330.63
2023-05-16T00:37:21.842Z,100326.28
2023-05-16T00:39:48.446Z,100330.88
2023-05-16T00:42:15.363Z,100334.38
2023-05-16T00:44:41.927Z,100342.97
2023-05-16T00:47:08.573Z,100342.97
2023-05-16T00:49:35.134Z,100345.19
2023-05-16T00:52:02.325Z,100350.03
2023-05-16T00:54:30.807Z,100346.72
2023-05-16T00:56:58.308Z,100349.69
2023-05-16T00:59:25.205Z,100348.88
2023-05-16T01:01:53.021Z,100350.47
2023-05-16T01:04:20.990Z,100343.47
2023-05-16T01:06:47.627Z,100348.88
2023-05-16T01:09:16.769Z,100350.59
2023-05-16T01:12:08.466Z,100356.91
2023-05-16T01:15:00.009Z,100354.28
2023-05-16T01:17:38.755Z,100351.97
2023-05-16T01:20:36.363Z,100356.44
2023-05-16T01:23:19.782Z,100360.91
2023-05-16T01:26:10.117Z,100351.75
2023-05-16T01:28:37.646Z,100355.06
2023-05-16T01:31:04.485Z,100352.63
2023-05-16T01:33:31.118Z,100351.81
2023-05-16T01:36:14.564Z,100349.53
2023-05-16T01:39:07.887Z,100364.09
2023-05-16T01:41:47.982Z,100347.31
2023-05-16T01:44:28.069Z,100352.47
2023-05-16T01:46:59.929Z,100356.38
2023-05-16T01:49:36.499Z,100355.88
2023-05-16T01:52:12.334Z,100356.47
2023-05-16T01:54:45.495Z,100349.91
2023-05-16T01:57:13.310Z,100352.53
2023-05-16T01:59:42.994Z,100356.28
2023-05-16T02:02:09.811Z,100368.97
2023-05-16T02:04:36.448Z,100376.56
2023-05-16T02:07:03.162Z,100377.41
2023-05-16T02:09:29.700Z,100373.63
2023-05-16T02:11:56.339Z,100373.41
2023-05-16T02:14:22.829Z,100372.38
2023-05-16T02:16:49.618Z,100366.13
2023-05-16T02:19:16.498Z,100362.03
2023-05-16T02:21:43.230Z,100363.06
2023-05-16T02:24:09.773Z,100367.78
2023-05-16T02:26:36.467Z,100360.47
2023-05-16T02:29:02.997Z,100361.91
2023-05-16T02:31:34.903Z,100365.72
2023-05-16T02:34:02.196Z,100375.88
2023-05-16T02:36:29.033Z,100373.41
2023-05-16T02:38:55.801Z,100369.31
2023-05-16T02:41:22.575Z,100374.72
2023-05-16T02:43:49.870Z,100373.06
2023-05-16T02:46:28.176Z,100381.59
2023-05-16T02:48:55.255Z,100380.09
2023-05-16T02:51:23.257Z,100382.81
2023-05-16T02:53:50.259Z,100392.53
2023-05-16T02:56:17.183Z,100391.47
2023-05-16T02:58:44.770Z,100387.72
2023-05-16T03:01:11.464Z,100386.66
2023-05-16T03:03:38.148Z,100392.16
2023-05-16T03:06:04.929Z,100386.53
2023-05-16T03:08:31.768Z,100393.31
2023-05-16T03:10:58.514Z,100398.13
2023-05-16T03:13:25.291Z,100395.31
2023-05-16T03:15:51.972Z,100400.41
2023-05-16T03:18:18.498Z,100400.53
2023-05-16T03:20:45.178Z,100399.06
2023-05-16T03:23:11.737Z,100406.97
2023-05-16T03:25:38.710Z,100403.09
2023-05-16T03:28:07.058Z,100403.81
2023-05-16T03:30:34.648Z,100409.69
2023-05-16T03:33:01.514Z,100406.41
2023-05-16T03:35:29.184Z,100414.50
2023-05-16T03:37:56.246Z,100415.91
2023-05-16T03:40:22.859Z,100416.25
2023-05-16T03:42:49.414Z,100413.22
2023-05-16T03:45:16.014Z,100417.47
2023-05-16T03:47:42.922Z,100417.13
2023-05-16T03:50:10.117Z,100418.22
2023-05-16T03:52:36.893Z,100417.25
2023-05-16T03:55:04.351Z,100430.38
2023-05-16T03:57:32.447Z,100433.50
2023-05-16T03:59:59.114Z,100435.22
2023-05-16T04:02:25.883Z,100425.59
2023-05-16T04:04:52.651Z,100432.88
2023-05-16T04:07:20.329Z,100432.88
2023-05-16T04:09:48.582Z,100431.72
2023-05-16T04:12:15.297Z,100443.13
2023-05-16T04:14:41.913Z,100451.56
2023-05-16T04:17:08.661Z,100444.28
2023-05-16T04:19:35.423Z,100446.66
2023-05-16T04:22:02.151Z,100452.38
2023-05-16T04:24:29.203Z,100461.81
2023-05-16T04:26:55.814Z,100460.25
2023-05-16T04:29:22.313Z,100460.41
2023-05-16T04:31:48.952Z,100469.25
2023-05-16T04:34:16.115Z,100474.28
2023-05-16T04:36:42.772Z,100469.50
2023-05-16T04:39:09.584Z,100475.00
2023-05-16T04:41:36.384Z,100479.38
2023-05-16T04:44:06.539Z,100471.56
2023-05-16T04:46:33.244Z,100474.56
2023-05-16T04:48:59.774Z,100473.72
2023-05-16T04:51:26.695Z,100480.00
2023-05-16T04:53:53.320Z,100489.31
2023-05-16T04:56:20.605Z,100488.38
2023-05-16T04:58:47.258Z,100492.25
2023-05-16T05:01:13.849Z,100498.28
2023-05-16T05:03:40.529Z,100496.50
2023-05-16T05:06:07.278Z,100494.53
2023-05-16T05:08:33.755Z,100505.97
2023-05-16T05:11:00.475Z,100508.25
2023-05-16T05:13:27.002Z,100512.66
2023-05-16T05:15:53.809Z,100514.13
2023-05-16T05:18:20.615Z,100510.75
2023-05-16T05:20:47.257Z,100508.50
2023-05-16T05:23:13.906Z,100511.44
2023-05-16T05:25:41.040Z,100513.81
2023-05-16T05:28:07.652Z,100526.13
2023-05-16T05:30:34.241Z,100534.44
2023-05-16T05:33:00.920Z,100531.16
2023-05-16T05:35:28.001Z,100540.97
2023-05-16T05:37:54.861Z,100544.91
2023-05-16T05:40:21.472Z,100544.19
2023-05-16T05:42:48.009Z,100545.94
2023-05-16T05:45:16.148Z,100545.13
2023-05-16T05:47:43.783Z,100553.91
2023-05-16T05:50:11.731Z,100550.84
2023-05-16T05:52:38.983Z,100550.28
2023-05-16T05:55:06.070Z,100550.75
2023-05-16T05:57:32.926Z,100553.66
2023-05-16T05:59:59.561Z,100557.66
2023-05-16T06:02:26.858Z,100576.22
2023-05-16T06:04:53.625Z,100579.59
2023-05-16T06:07:20.200Z,100582.69
2023-05-16T06:09:47.184Z,100574.06
2023-05-16T06:12:13.840Z,100582.03
2023-05-16T06:14:40.420Z,100582.50
2023-05-16T06:17:07.216Z,100582.75
2023-05-16T06:19:33.982Z,100595.06
2023-05-16T06:22:02.084Z,100594.75
2023-05-16T06:24:30.028Z,100602.91
2023-05-16T06:26:56.617Z,100605.25
2023-05-16T06:29:23.448Z,100605.25
2023-05-16T06:31:50.087Z,100601.13
2023-05-16T06:34:16.635Z,100613.28
2023-05-16T06:36:44.433Z,100613.09
2023-05-16T06:39:11.240Z,100624.13
2023-05-16T06:41:37.882Z,100614.41
2023-05-16T06:44:05.211Z,100615.44
2023-05-16T06:46:33.066Z,100618.16
2023-05-16T06:48:59.904Z,100629.50
2023-05-16T06:51:26.596Z,100625.75
2023-05-16T06:53:53.157Z,100625.47
2023-05-16T06:56:19.767Z,100631.66
2023-05-16T06:58:46.508Z,100627.84
2023-05-16T07:01:13.356Z,100621.59
2023-05-16T07:03:40.203Z,100632.13
2023-05-16T07:06:07.159Z,100640.84
2023-05-16T07:08:36.064Z,100638.72
2023-05-16T07:11:02.811Z,100635.34
2023-05-16T07:13:29.392Z,100649.34
2023-05-16T07:15:56.275Z,100641.00
2023-05-16T07:18:22.931Z,100646.38
2023-05-16T07:20:49.536Z,100656.63
2023-05-16T07:23:16.200Z,100651.22
2023-05-16T07:25:42.806Z,100659.47
2023-05-16T07:28:09.397Z,100666.47
2023-05-16T07:30:36.102Z,100665.16
2023-05-16T07:33:02.683Z,100664.28
2023-05-16T07:35:29.735Z,100668.59
2023-05-16T07:37:56.508Z,100666.72
2023-05-16T07:40:26.111Z,100668.03
2023-05-16T07:42:52.751Z,100658.84
2023-05-16T07:45:19.605Z,100673.09
2023-05-16T07:47:46.513Z,100667.22
2023-05-16T07:50:13.318Z,100671.56
2023-05-16T07:52:39.980Z,100667.31
2023-05-16T07:55:06.963Z,100673.22
2023-05-16T07:57:33.635Z,100671.94
2023-05-16T08:00:00.715Z,100671.53
2023-05-16T08:02:31.203Z,100670.16
2023-05-16T08:04:58.290Z,100675.19
2023-05-16T08:07:25.096Z,100675.16
2023-05-16T08:09:51.756Z,100664.81
2023-05-16T08:12:18.380Z,100668.25
2023-05-16T08:14:45.054Z,100673.56
2023-05-16T08:17:11.865Z,100680.72
2023-05-16T08:19:38.502Z,100687.94
2023-05-16T08:22:06.945Z,100672.31
2023-05-16T08:24:33.610Z,100682.38
2023-05-16T08:27:00.684Z,100673.75
2023-05-16T08:29:27.347Z,100681.38
2023-05-16T08:31:54.097Z,100675.69
2023-05-16T08:34:20.899Z,100679.41
2023-05-16T08:36:47.522Z,100684.50
2023-05-16T08:39:14.238Z,100687.50
2023-05-16T08:41:41.353Z,100684.19
2023-05-16T08:44:08.600Z,100694.53
2023-05-16T08:46:36.128Z,100697.34
2023-05-16T08:49:08.163Z,100698.00
2023-05-16T08:51:35.796Z,100693.56
2023-05-16T08:54:13.634Z,100688.13
2023-05-16T08:56:42.272Z,100687.13
2023-05-16T08:59:10.220Z,100681.34
2023-05-16T09:01:37.486Z,100678.72
2023-05-16T09:04:09.775Z,100683.19
2023-05-16T09:06:37.212Z,100675.16
2023-05-16T09:09:04.920Z,100681.53
2023-05-16T09:11:31.575Z,100673.78
2023-05-16T09:13:58.168Z,100682.31
2023-05-16T09:16:24.844Z,100679.31
2023-05-16T09:18:57.414Z,100687.53
2023-05-16T09:21:33.872Z,100687.34
2023-05-16T09:24:07.871Z,100685.75
2023-05-16T09:26:36.768Z,100672.19
2023-05-16T09:29:12.308Z,100668.88
2023-05-16T09:31:39.325Z,100670.81
2023-05-16T09:34:11.400Z,100663.88
2023-05-16T09:36:42.165Z,100673.41
2023-05-16T09:39:10.329Z,100682.44
2023-05-16T09:41:36.955Z,100678.97
2023-05-16T09:44:06.985Z,100677.09
2023-05-16T09:46:38.320Z,100678.91
2023-05-16T09:49:05.073Z,100680.84
2023-05-16T09:51:32.398Z,100674.44
2023-05-16T09:54:00.309Z,100671.25
2023-05-16T09:56:27.143Z,100683.78
2023-05-16T09:58:53.830Z,100678.69
2023-05-16T10:01:20.824Z,100683.03
2023-05-16T10:03:47.786Z,100679.22
2023-05-16T10:06:16.813Z,100680.09
2023-05-16T10:08:44.060Z,100684.78
2023-05-16T10:11:11.963Z,100684.66
2023-05-16T10:13:39.791Z,100677.94
2023-05-16T10:16:10.279Z,100680.47
2023-05-16T10:18:39.028Z,100662.31
2023-05-16T10:21:13.747Z,100677.63
2023-05-16T10:23:46.044Z,100676.00
2023-05-16T10:26:14.913Z,100669.78
2023-05-16T10:28:42.208Z,100674.09
2023-05-16T10:31:11.218Z,100669.47
2023-05-16T10:33:37.921Z,100664.25
2023-05-16T10:36:05.742Z,100671.34
2023-05-16T10:38:33.926Z,100671.88
2023-05-16T10:41:01.476Z,100664.28
2023-05-16T10:43:31.082Z,100664.31
2023-05-16T10:46:03.026Z,100665.13
2023-05-16T10:48:31.820Z,100660.53
2023-05-16T10:50:58.703Z,100659.47
2023-05-16T10:53:34.993Z,100650.78
2023-05-16T10:56:01.823Z,100659.56
2023-05-16T10:58:31.289Z,100661.25
2023-05-16T11:01:25.030Z,100672.75
2023-05-16T11:03:57.648Z,100665.16
2023-05-16T11:06:26.009Z,100668.44
2023-05-16T11:09:27.918Z,100668.75
2023-05-16T11:11:56.135Z,100663.31
2023-05-16T11:14:27.326Z,100678.88
2023-05-16T11:17:01.765Z,100679.97
2023-05-16T11:19:30.532Z,100664.13
2023-05-16T11:22:10.269Z,100675.59
2023-05-16T11:24:39.195Z,100671.22
2023-05-16T11:27:07.094Z,100670.41
2023-05-16T11:29:35.988Z,100675.03
2023-05-16T11:32:05.313Z,100670.66
2023-05-16T11:34:36.189Z,100668.75
2023-05-16T11:37:02.850Z,100680.97
2023-05-16T11:39:32.373Z,100670.00
2023-05-16T11:41:59.172Z,100672.66
2023-05-16T11:44:26.399Z,100664.72
2023-05-16T11:46:53.235Z,100663.59
2023-05-16T11:49:20.112Z,100669.88
2023-05-16T11:51:46.951Z,100661.97
2023-05-16T11:54:13.910Z,100666.09
2023-05-16T11:56:41.515Z,100666.41
2023-05-16T11:59:08.302Z,100664.50
2023-05-16T12:01:37.400Z,100665.31
2023-05-16T12:04:12.312Z,100660.63
2023-05-16T12:06:39.984Z,100669.38
2023-05-16T12:09:14.974Z,100664.97
2023-05-16T12:11:44.512Z,100671.25
2023-05-16T12:14:13.445Z,100673.19
2023-05-16T12:16:45.224Z,100677.06
2023-05-16T12:19:12.623Z,100676.53
2023-05-16T12:21:39.955Z,100688.56
2023-05-16T12:24:10.742Z,100677.16
2023-05-16T12:26:40.652Z,100685.13
2023-05-16T12:29:07.988Z,100691.94
2023-05-16T12:31:41.893Z,100692.50
2023-05-16T12:34:19.202Z,100690.84
2023-05-16T12:36:46.097Z,100690.31
2023-05-16T12:39:14.253Z,100690.84
2023-05-16T12:41:43.398Z,100689.25
2023-05-16T12:44:17.049Z,100698.50
2023-05-16T12:46:52.288Z,100701.22
2023-05-16T12:49:23.029Z,100694.13
2023-05-16T12:51:55.244Z,100703.41
2023-05-16T12:54:25.690Z,100699.25
2023-05-16T12:56:52.441Z,100696.78
2023-05-16T12:59:20.514Z,100699.50
2023-05-16T13:01:47.589Z,100700.63
2023-05-16T13:04:20.336Z,100693.03
2023-05-16T13:06:57.285Z,100693.59
2023-05-16T13:09:27.170Z,100686.50
2023-05-16T13:11:55.083Z,100684.06
2023-05-16T13:14:21.916Z,100690.03
2023-05-16T13:16:48.675Z,100691.13
2023-05-16T13:19:15.589Z,100684.56
2023-05-16T13:21:42.339Z,100685.09
2023-05-16T13:24:09.174Z,100690.28
2023-05-16T13:26:35.888Z,100680.44
2023-05-16T13:29:02.610Z,100694.63
2023-05-16T13:31:29.437Z,100692.16
2023-05-16T13:33:56.143Z,100699.56
2023-05-16T13:36:22.789Z,100696.84
2023-05-16T13:38:49.428Z,100690.84
2023-05-16T13:41:16.297Z,100696.31
2023-05-16T13:43:42.977Z,100708.56
2023-05-16T13:46:09.782Z,100706.69
2023-05-16T13:48:36.513Z,100711.03
2023-05-16T13:51:03.364Z,100714.28
2023-05-16T13:53:30.141Z,100701.75
2023-05-16T13:55:56.808Z,100699.50
2023-05-16T13:58:23.514Z,100700.63
2023-05-16T14:00:51.011Z,100711.50
2023-05-16T14:03:18.210Z,100716.63
2023-05-16T14:05:45.109Z,100719.09
2023-05-16T14:08:11.865Z,100722.34
2023-05-16T14:10:38.533Z,100721.75
2023-05-16T14:13:05.344Z,100720.63
2023-05-16T14:15:32.116Z,100722.22
2023-05-16T14:17:59.775Z,100731.47
2023-05-16T14:20:26.939Z,100722.13
2023-05-16T14:22:53.615Z,100719.06
2023-05-16T14:25:20.888Z,100725.81
2023-05-16T14:27:47.910Z,100728.78
2023-05-16T14:30:14.690Z,100738.25
2023-05-16T14:32:41.669Z,100739.31
2023-05-16T14:35:09.753Z,100734.09
2023-05-16T14:37:36.586Z,100732.72
2023-05-16T14:40:05.401Z,100731.66
2023-05-16T14:42:32.155Z,100724.34
2023-05-16T14:45:01.378Z,100726.81
2023-05-16T14:47:29.153Z,100721.41
2023-05-16T14:49:56.467Z,100728.50
2023-05-16T14:52:23.356Z,100743.47
2023-05-16T14:54:51.436Z,100738.00
2023-05-16T14:57:18.197Z,100745.91
2023-05-16T14:59:44.946Z,100737.44
2023-05-16T15:02:11.666Z,100744.22
2023-05-16T15:04:38.419Z,100756.44
2023-05-16T15:07:05.239Z,100745.03
2023-05-16T15:09:32.004Z,100755.34
2023-05-16T15:11:58.704Z,100755.34
2023-05-16T15:14:27.252Z,100756.13
2023-05-16T15:16:54.097Z,100756.13
2023-05-16T15:19:20.866Z,100767.84
2023-05-16T15:21:47.629Z,100776.28
2023-05-16T15:24:14.564Z,100772.72
2023-05-16T15:26:41.713Z,100783.34
2023-05-16T15:29:08.532Z,100781.19
2023-05-16T15:31:35.335Z,100783.94
2023-05-16T15:34:02.142Z,100786.19
2023-05-16T15:36:29.248Z,100787.88
2023-05-16T15:38:55.906Z,100788.72
2023-05-16T15:41:37.098Z,100788.19
2023-05-16T15:44:10.588Z,100792.03
2023-05-16T15:46:37.300Z,100791.31
2023-05-16T15:49:04.001Z,100788.84
2023-05-16T15:51:31.080Z,100792.16
2023-05-16T15:53:57.814Z,100795.69
2023-05-16T15:56:27.056Z,100807.66
2023-05-16T15:58:55.876Z,100815.84
2023-05-16T16:01:22.717Z,100808.44
2023-05-16T16:03:49.598Z,100807.06
2023-05-16T16:06:16.619Z,100800.22
2023-05-16T16:08:43.409Z,100811.38
2023-05-16T16:11:10.277Z,100807.53
2023-05-16T16:13:37.170Z,100800.41
2023-05-16T16:16:04.320Z,100799.25
2023-05-16T16:18:31.149Z,100803.53
2023-05-16T16:20:58.069Z,100803.47
2023-05-16T16:23:24.772Z,100794.69
2023-05-16T16:25:51.437Z,100800.34
2023-05-16T16:28:18.805Z,100805.53
2023-05-16T16:30:47.654Z,100791.94
2023-05-16T16:33:14.480Z,100801.97
2023-05-16T16:35:41.320Z,100809.03
2023-05-16T16:38:08.068Z,100811.50
2023-05-16T16:40:35.096Z,100814.22
2023-05-16T16:43:01.886Z,100805.53
2023-05-16T16:45:28.984Z,100810.91
2023-05-16T16:47:56.147Z,100810.28
2023-05-16T16:50:23.167Z,100817.84
2023-05-16T16:52:49.890Z,100816.41
2023-05-16T16:55:16.885Z,100816.00
2023-05-16T16:57:43.639Z,100814.06
2023-05-16T17:00:11.654Z,100809.63
2023-05-16T17:02:38.701Z,100819.38
2023-05-16T17:05:06.727Z,100809.34
2023-05-16T17:07:34.028Z,100824.00
2023-05-16T17:10:01.337Z,100827.78
2023-05-16T17:12:29.007Z,100816.94
2023-05-16T17:14:57.362Z,100827.78
2023-05-16T17:17:26.237Z,100819.09
2023-05-16T17:19:53.270Z,100817.44
2023-05-16T17:22:21.524Z,100821.50
2023-05-16T17:24:48.383Z,100825.53
2023-05-16T17:27:15.111Z,100826.28
2023-05-16T17:29:41.710Z,100834.69
2023-05-16T17:32:08.430Z,100835.06
2023-05-16T17:34:35.527Z,100841.19
2023-05-16T17:37:02.236Z,100835.13
2023-05-16T17:39:29.273Z,100843.22
2023-05-16T17:41:57.470Z,100835.00
2023-05-16T17:44:24.096Z,100839.81
2023-05-16T17:46:50.652Z,100835.88
2023-05-16T17:49:17.721Z,100846.00
2023-05-16T17:51:52.669Z,100845.44
2023-05-16T17:54:20.725Z,100841.69
2023-05-16T17:56:48.774Z,100848.59
2023-05-16T17:59:16.148Z,100848.53
2023-05-16T18:01:43.614Z,100856.03
2023-05-16T18:04:10.806Z,100843.69
2023-05-16T18:06:38.449Z,100852.56
2023-05-16T18:09:10.490Z,100859.00
2023-05-16T18:11:40.463Z,100856.53
2023-05-16T18:14:09.455Z,100855.06
2023-05-16T18:16:36.448Z,100859.00
2023-05-16T18:19:05.031Z,100859.16
2023-05-16T18:21:32.304Z,100870.19
2023-05-16T18:23:59.626Z,100865.47
2023-05-16T18:26:28.065Z,100870.59
2023-05-16T18:28:54.736Z,100876.63
2023-05-16T18:31:21.548Z,100874.53
2023-05-16T18:33:48.503Z,100878.78
2023-05-16T18:36:15.139Z,100874.19
2023-05-16T18:38:41.819Z,100878.88
2023-05-16T18:41:08.449Z,100875.66
2023-05-16T18:43:36.739Z,100873.31
2023-05-16T18:46:04.177Z,100873.84
2023-05-16T18:48:31.068Z,100872.81
2023-05-16T18:50:57.964Z,100872.38
2023-05-16T18:53:24.737Z,100876.06
2023-05-16T18:55:51.373Z,100870.78
2023-05-16T18:58:18.246Z,100879.59
2023-05-16T19:00:45.057Z,100883.38
2023-05-16T19:03:13.577Z,100886.47
2023-05-16T19:05:40.391Z,100885.78
2023-05-16T19:08:07.250Z,100897.56
2023-05-16T19:10:38.134Z,100890.16
2023-05-16T19:13:08.323Z,100896.53
2023-05-16T19:15:36.419Z,100906.41
2023-05-16T19:18:05.128Z,100907.94
2023-05-16T19:20:33.969Z,100906.50
2023-05-16T19:23:01.167Z,100899.31
2023-05-16T19:25:28.212Z,100908.72
2023-05-16T19:27:55.059Z,100906.50
2023-05-16T19:30:21.762Z,100917.78
2023-05-16T19:32:48.358Z,100920.25
2023-05-16T19:35:15.125Z,100928.59
2023-05-16T19:37:41.774Z,100928.06
2023-05-16T19:40:08.840Z,100929.56
2023-05-16T19:42:35.536Z,100924.25
2023-05-16T19:45:02.086Z,100926.66
2023-05-16T19:47:31.590Z,100929.78
2023-05-16T19:49:58.342Z,100925.78
2023-05-16T19:52:26.184Z,100936.84
2023-05-16T19:54:52.849Z,100942.44
2023-05-16T19:57:19.571Z,100946.31
2023-05-16T19:59:46.158Z,100940.81
2023-05-16T20:02:12.782Z,100943.13
2023-05-16T20:04:39.455Z,100949.28
2023-05-16T20:07:07.689Z,100953.44
2023-05-16T20:09:34.403Z,100954.00
2023-05-16T20:12:01.074Z,100961.84
2023-05-16T20:14:29.232Z,100964.66
2023-05-16T20:16:56.427Z,100960.63
2023-05-16T20:19:23.176Z,100954.50
2023-05-16T20:21:50.092Z,100960.38
2023-05-16T20:24:17.737Z,100958.25
2023-05-16T20:26:44.362Z,100960.78
2023-05-16T20:29:11.258Z,100958.16
2023-05-16T20:31:38.026Z,100957.66
2023-05-16T20:34:04.803Z,100957.03
2023-05-16T20:36:32.865Z,100966.81
2023-05-16T20:39:00.029Z,100961.13
2023-05-16T20:41:26.713Z,100962.63
2023-05-16T20:43:53.311Z,100964.09
2023-05-16T20:46:19.968Z,100960.81
2023-05-16T20:48:46.646Z,100960.63
2023-05-16T20:51:13.266Z,100953.88
2023-05-16T20:53:39.916Z,100959.34
2023-05-16T20:56:06.484Z,100959.38
2023-05-16T20:58:33.278Z,100962.31
2023-05-16T21:00:59.988Z,100960.53
2023-05-16T21:03:26.780Z,100965.78
2023-05-16T21:05:53.474Z,100966.81
2023-05-16T21:08:20.017Z,100967.72
2023-05-16T21:10:46.643Z,100965.00
2023-05-16T21:13:13.275Z,100971.31
2023-05-16T21:15:40.044Z,100975.50
2023-05-16T23:10:47.624Z,101018.91
2023-05-16T23:13:14.532Z,101020.19
2023-05-16T23:15:41.223Z,101024.31
2023-05-16T23:18:07.903Z,101028.19
2023-05-16T23:20:34.552Z,101020.00
2023-05-16T23:23:01.179Z,101022.06
2023-05-16T23:25:28.134Z,101017.69
2023-05-16T23:27:57.959Z,101013.78
2023-05-16T23:30:25.046Z,101018.34
2023-05-16T23:32:52.099Z,101017.50
2023-05-16T23:35:18.734Z,101018.56
2023-05-16T23:37:45.482Z,101010.06
2023-05-16T23:40:12.206Z,101018.28
2023-05-16T23:42:40.909Z,101025.78
2023-05-16T23:45:08.210Z,101021.84
2023-05-16T23:47:35.090Z,101024.75
2023-05-16T23:50:02.159Z,101028.69
2023-05-16T23:52:28.872Z,101036.16
2023-05-16T23:54:55.433Z,101028.25
2023-05-16T23:57:22.076Z,101035.28
2023-05-16T23:59:48.653Z,101034.88
